Time;durP1;ratioP1;P1;durP2;ratioP2;P2;SDS_P1;SDS_P2;PMS_P1;PMS_P2;Temp;Humidity;BMP_temperature;BMP_pressure;BME280_temperature;BME280_humidity;BME280_pressure;Samples;Min_cycle;Max_cycle;Signal;HPM_P1;HPM_P2
2021/12/26 00:01:21;;;;;;;4.25;3.75;;;;;;;15.18;39.69;92414.03;4994991;28;20044;-90
2021/12/26 00:03:46;;;;;;;3.80;3.08;;;;;;;15.19;39.75;92404.63;5012959;28;20064;-90
2021/12/26 00:06:20;;;;;;;4.50;3.10;;;;;;;15.16;39.74;92408.38;5011263;28;20494;-89
2021/12/26 00:08:45;;;;;;;3.67;3.22;;;;;;;15.17;39.79;92402.41;5013026;28;20036;-90
2021/12/26 00:11:11;;;;;;;4.70;3.03;;;;;;;15.14;39.73;92403.47;4994629;28;20038;-89
2021/12/26 00:13:37;;;;;;;4.55;3.42;;;;;;;15.16;39.67;92398.22;5028237;28;20030;-90
2021/12/26 00:16:02;;;;;;;4.75;2.90;;;;;;;15.16;39.86;92400.19;5027880;28;20043;-89
2021/12/26 00:18:28;;;;;;;4.00;3.35;;;;;;;15.13;39.69;92407.44;5011633;28;20040;-90
2021/12/26 00:20:53;;;;;;;3.45;3.05;;;;;;;15.16;39.78;92402.91;5028565;28;20038;-89
2021/12/26 00:23:20;;;;;;;3.78;3.38;;;;;;;15.13;39.85;92396.53;5027907;28;20069;-89
2021/12/26 00:25:45;;;;;;;4.40;3.53;;;;;;;15.18;39.56;92387.53;5025084;28;20033;-90
2021/12/26 00:28:11;;;;;;;2.92;2.63;;;;;;;15.16;39.54;92394.75;4991455;28;20044;-89
2021/12/26 00:30:36;;;;;;;2.97;2.67;;;;;;;15.15;39.71;92382.41;5008459;28;20140;-90
2021/12/26 00:33:02;;;;;;;2.83;2.53;;;;;;;15.14;39.34;92389.13;5009805;28;20030;-89
2021/12/26 00:35:27;;;;;;;3.60;3.15;;;;;;;15.16;39.77;92390.03;5022886;28;20053;-90
2021/12/26 00:37:53;;;;;;;4.57;3.45;;;;;;;15.19;39.93;92394.47;5008589;28;20049;-89
2021/12/26 00:40:19;;;;;;;3.05;2.75;;;;;;;15.18;39.93;92397.69;5007518;28;20399;-89
2021/12/26 00:42:45;;;;;;;3.53;2.85;;;;;;;15.15;39.77;92394.03;5008019;28;20117;-89
2021/12/26 00:45:10;;;;;;;4.10;3.28;;;;;;;15.17;39.57;92390.78;5008914;28;20391;-90
2021/12/26 00:47:36;;;;;;;4.13;3.08;;;;;;;15.20;39.42;92387.03;4992571;28;20041;-90
2021/12/26 00:50:03;;;;;;;4.95;4.00;;;;;;;15.17;39.70;92391.53;5038562;28;20048;-90
2021/12/26 00:52:28;;;;;;;3.20;2.88;;;;;;;15.15;39.86;92393.31;5027296;28;20037;-89
2021/12/26 00:54:54;;;;;;;4.25;3.38;;;;;;;15.17;39.76;92398.94;5029451;28;20064;-89
2021/12/26 00:57:19;;;;;;;4.60;2.97;;;;;;;15.15;39.77;92398.75;5029743;28;20037;-89
2021/12/26 00:59:44;;;;;;;3.75;3.35;;;;;;;15.17;39.92;92393.50;5047029;28;20398;-90
2021/12/26 01:02:10;;;;;;;4.45;3.40;;;;;;;15.18;39.52;92394.97;5030075;28;20033;-90
2021/12/26 01:04:37;;;;;;;3.40;3.00;;;;;;;15.15;39.64;92385.88;5047688;28;20087;-89
2021/12/26 01:07:08;;;;;;;3.03;2.72;;;;;;;15.22;39.51;92401.59;5047188;28;20040;-89
2021/12/26 01:09:34;;;;;;;5.55;3.17;;;;;;;15.19;39.90;92394.47;5030548;28;20091;-90
2021/12/26 01:12:06;;;;;;;3.33;3.03;;;;;;;15.19;39.68;92399.16;5026695;28;20045;-89
2021/12/26 01:14:32;;;;;;;4.22;2.97;;;;;;;15.17;39.52;92409.84;5028364;28;20342;-89
2021/12/26 01:17:07;;;;;;;3.60;3.20;;;;;;;15.20;39.58;92414.25;5027619;28;20454;-89
2021/12/26 01:19:42;;;;;;;3.92;3.45;;;;;;;15.21;39.41;92419.19;4995428;28;20525;-90
2021/12/26 01:22:07;;;;;;;4.75;3.67;;;;;;;15.20;39.67;92417.72;5026489;28;20509;-90
2021/12/26 01:24:33;;;;;;;4.18;3.63;;;;;;;15.18;39.64;92414.78;5020530;28;20029;-89
2021/12/26 01:26:58;;;;;;;3.13;2.83;;;;;;;15.15;39.67;92402.22;5043794;28;20037;-89
2021/12/26 01:29:23;;;;;;;3.75;3.17;;;;;;;15.25;39.66;92414.19;5042804;28;20037;-90
2021/12/26 01:31:49;;;;;;;3.58;2.90;;;;;;;15.24;39.33;92407.28;5052352;28;20037;-89
2021/12/26 01:34:15;;;;;;;4.65;2.80;;;;;;;15.19;39.57;92410.06;5047533;28;20040;-89
2021/12/26 01:36:40;;;;;;;3.67;2.92;;;;;;;15.18;39.45;92408.59;5047833;28;20044;-90
2021/12/26 01:39:08;;;;;;;4.05;3.30;;;;;;;15.17;39.58;92412.56;5013351;28;20048;-90
2021/12/26 01:41:38;;;;;;;5.53;3.38;;;;;;;15.17;39.70;92413.28;5047923;28;20045;-89
2021/12/26 01:44:04;;;;;;;3.57;3.00;;;;;;;15.21;39.44;92405.56;5047802;28;20037;-90
2021/12/26 01:46:33;;;;;;;4.00;3.30;;;;;;;15.14;39.40;92411.63;5030341;28;20075;-89
2021/12/26 01:49:09;;;;;;;3.60;2.85;;;;;;;15.15;39.61;92412.34;5018393;28;20521;-90
2021/12/26 01:51:35;;;;;;;5.05;2.90;;;;;;;15.18;39.34;92409.31;5026577;28;20087;-90
2021/12/26 01:54:06;;;;;;;4.57;2.72;;;;;;;15.12;39.47;92407.94;5026663;28;20042;-90
2021/12/26 01:56:32;;;;;;;3.80;3.08;;;;;;;15.17;39.40;92404.41;5026634;28;20567;-90
2021/12/26 01:58:58;;;;;;;3.65;2.78;;;;;;;15.16;39.61;92394.75;5028437;28;20045;-90
2021/12/26 02:01:23;;;;;;;3.33;2.85;;;;;;;15.15;39.68;92396.75;5008998;28;20037;-90
2021/12/26 02:03:49;;;;;;;3.83;2.78;;;;;;;15.11;39.55;92409.94;5027360;28;20029;-91
2021/12/26 02:06:14;;;;;;;4.15;3.55;;;;;;;15.16;39.40;92400.19;5010261;28;20047;-90
2021/12/26 02:08:40;;;;;;;4.00;3.10;;;;;;;15.15;39.54;92412.34;5016406;28;20411;-90
2021/12/26 02:11:05;;;;;;;4.32;3.55;;;;;;;15.15;39.58;92402.22;5025373;28;20044;-90
2021/12/26 02:13:31;;;;;;;6.13;3.67;;;;;;;15.15;39.44;92404.94;5013678;28;20399;-90
2021/12/26 02:15:56;;;;;;;3.55;2.83;;;;;;;15.22;39.42;92398.88;5027688;28;20490;-89
2021/12/26 02:18:22;;;;;;;3.88;3.47;;;;;;;15.18;39.31;92406.59;5005836;28;20042;-90
2021/12/26 02:23:26;;;;;;;3.38;2.80;;;;;;;15.13;39.51;92404.72;5006492;28;20030;-90
2021/12/26 02:28:24;;;;;;;3.55;2.80;;;;;;;15.18;39.53;92408.59;5026118;28;20044;-90
2021/12/26 02:30:50;;;;;;;3.55;2.70;;;;;;;15.14;39.58;92414.34;5010144;28;20052;-90
2021/12/26 02:33:16;;;;;;;3.83;3.15;;;;;;;15.20;39.36;92398.66;5027451;28;20496;-90
2021/12/26 02:35:42;;;;;;;3.97;2.88;;;;;;;15.19;39.46;92412.78;5027742;28;20061;-90
2021/12/26 02:38:08;;;;;;;4.85;3.72;;;;;;;15.18;39.38;92409.31;5026016;28;20392;-90
2021/12/26 02:40:33;;;;;;;3.65;3.05;;;;;;;15.13;39.41;92406.69;5026318;28;20046;-90
2021/12/26 02:42:59;;;;;;;3.53;2.90;;;;;;;15.24;39.18;92411.97;5030035;28;20034;-90
2021/12/26 02:45:25;;;;;;;3.97;2.97;;;;;;;15.24;39.63;92410.00;5030980;28;20399;-89
2021/12/26 02:47:50;;;;;;;4.15;3.33;;;;;;;15.15;39.42;92407.66;5029831;28;20041;-89
2021/12/26 02:50:19;;;;;;;4.30;3.55;;;;;;;15.15;39.32;92409.63;5047059;28;20147;-90
2021/12/26 02:52:45;;;;;;;3.80;3.25;;;;;;;15.17;39.24;92407.13;5050425;28;20057;-90
2021/12/26 02:55:10;;;;;;;3.88;3.00;;;;;;;15.18;39.23;92408.59;5050743;28;20040;-89
2021/12/26 02:57:36;;;;;;;3.83;3.10;;;;;;;15.19;39.32;92399.91;5048846;28;20041;-90
2021/12/26 03:00:07;;;;;;;3.85;3.10;;;;;;;15.22;38.82;92403.59;5031314;28;20471;-90
2021/12/26 03:02:32;;;;;;;2.95;2.38;;;;;;;15.17;39.50;92402.41;5010609;28;20579;-90
2021/12/26 03:04:58;;;;;;;4.05;3.28;;;;;;;15.17;39.29;92404.41;5010018;28;20038;-90
2021/12/26 03:07:23;;;;;;;3.45;2.97;;;;;;;15.18;39.22;92419.47;5009400;28;20096;-90
2021/12/26 03:09:57;;;;;;;4.30;3.47;;;;;;;15.13;39.53;92423.03;5010776;28;20042;-90
2021/12/26 03:12:22;;;;;;;4.22;3.42;;;;;;;15.18;39.28;92427.66;5009964;28;20519;-90
2021/12/26 03:14:48;;;;;;;3.83;3.40;;;;;;;15.16;39.51;92424.69;5026468;28;20045;-90
2021/12/26 03:17:14;;;;;;;4.28;3.30;;;;;;;15.13;39.52;92420.31;5025778;28;20429;-90
2021/12/26 03:19:39;;;;;;;3.55;3.10;;;;;;;15.15;39.16;92412.34;5010829;28;20034;-91
2021/12/26 03:22:05;;;;;;;4.05;3.03;;;;;;;15.14;39.24;92419.78;5025809;28;20448;-90
2021/12/26 03:24:31;;;;;;;3.72;3.03;;;;;;;15.17;39.38;92426.91;5010156;28;20042;-90
2021/12/26 03:27:00;;;;;;;4.13;3.15;;;;;;;15.16;39.30;92419.25;4997205;28;20037;-89
2021/12/26 03:29:25;;;;;;;3.67;2.63;;;;;;;15.11;39.20;92420.81;5028550;28;20064;-90
2021/12/26 03:31:51;;;;;;;3.55;3.10;;;;;;;15.17;39.56;92429.63;5030820;28;20037;-89
2021/12/26 03:34:16;;;;;;;4.03;3.20;;;;;;;15.15;39.34;92428.69;5011912;28;20469;-90
2021/12/26 03:36:42;;;;;;;4.63;3.33;;;;;;;15.13;39.27;92423.75;5030222;28;20040;-89
2021/12/26 03:39:08;;;;;;;3.40;2.88;;;;;;;15.18;39.21;92420.22;5028677;28;20056;-89
2021/12/26 03:41:33;;;;;;;5.07;3.67;;;;;;;15.18;39.11;92425.66;5030056;28;20380;-90
2021/12/26 03:43:59;;;;;;;4.45;3.38;;;;;;;15.21;39.41;92426.63;5030338;28;20037;-89
2021/12/26 03:46:24;;;;;;;4.03;3.42;;;;;;;15.19;39.50;92424.41;5028773;28;20103;-90
2021/12/26 03:48:49;;;;;;;3.65;3.20;;;;;;;15.16;39.19;92428.16;5031561;28;20051;-90
2021/12/26 03:51:15;;;;;;;4.07;3.42;;;;;;;15.19;39.12;92429.13;5044922;28;20045;-90
2021/12/26 03:53:40;;;;;;;4.38;3.20;;;;;;;15.19;39.23;92423.66;5029377;28;20040;-90
2021/12/26 03:56:05;;;;;;;3.70;3.17;;;;;;;15.19;39.00;92429.13;5045128;28;20046;-89
2021/12/26 03:58:31;;;;;;;5.43;3.20;;;;;;;15.20;39.18;92431.31;5045154;28;20041;-90
2021/12/26 04:00:56;;;;;;;4.88;3.63;;;;;;;15.22;39.03;92428.09;5006950;28;20414;-90
2021/12/26 04:03:23;;;;;;;3.50;3.00;;;;;;;15.19;38.94;92420.94;5025302;28;20033;-90
2021/12/26 04:05:49;;;;;;;3.42;3.05;;;;;;;15.15;39.37;92429.44;5044966;28;20053;-90
2021/12/26 04:08:14;;;;;;;4.97;3.85;;;;;;;15.15;39.26;92426.72;5044572;28;20038;-89
2021/12/26 04:10:40;;;;;;;3.70;3.00;;;;;;;15.19;39.07;92426.41;5028476;28;20037;-90
2021/12/26 04:13:06;;;;;;;4.03;3.15;;;;;;;15.19;38.91;92424.41;5044093;28;20061;-89
2021/12/26 04:15:31;;;;;;;3.33;2.92;;;;;;;15.17;39.80;92423.44;5028669;28;20353;-90
2021/12/26 04:17:57;;;;;;;3.80;2.70;;;;;;;15.10;39.15;92427.50;5029841;28;20380;-90
2021/12/26 04:20:23;;;;;;;5.60;3.45;;;;;;;15.18;39.14;92424.91;5044383;28;20067;-90
2021/12/26 04:22:50;;;;;;;4.18;3.60;;;;;;;15.16;39.02;92427.41;5044988;28;20041;-89
2021/12/26 04:25:15;;;;;;;5.63;3.78;;;;;;;15.15;39.03;92420.53;5043625;28;20037;-89
2021/12/26 04:27:40;;;;;;;3.13;2.83;;;;;;;15.16;39.09;92435.59;5025912;28;20034;-90
2021/12/26 04:30:07;;;;;;;4.22;3.10;;;;;;;15.13;39.20;92415.59;5008992;28;20412;-90
2021/12/26 04:32:33;;;;;;;4.90;3.25;;;;;;;15.16;38.92;92411.09;5024192;28;20046;-90
2021/12/26 04:34:58;;;;;;;4.57;3.80;;;;;;;15.13;39.26;92426.47;5024859;28;20057;-90
2021/12/26 04:37:24;;;;;;;4.20;2.80;;;;;;;15.12;39.13;92429.72;5029795;28;20399;-90
2021/12/26 04:39:49;;;;;;;3.83;3.33;;;;;;;15.14;39.17;92427.22;5029164;28;20052;-90
2021/12/26 04:42:16;;;;;;;3.35;3.03;;;;;;;15.11;39.12;92428.97;5043920;28;20038;-90
2021/12/26 04:44:41;;;;;;;4.30;3.65;;;;;;;15.15;39.10;92425.97;5044496;28;20030;-90
2021/12/26 04:47:06;;;;;;;4.28;3.50;;;;;;;15.17;39.08;92426.91;5027470;28;20396;-90
2021/12/26 04:49:32;;;;;;;3.92;3.50;;;;;;;15.19;39.04;92429.84;5043545;28;20103;-90
2021/12/26 04:51:57;;;;;;;3.42;3.05;;;;;;;15.18;39.15;92424.91;5044515;28;20034;-90
2021/12/26 04:54:23;;;;;;;3.38;2.80;;;;;;;15.15;39.24;92424.00;5027428;28;20040;-89
2021/12/26 04:56:48;;;;;;;3.92;3.30;;;;;;;15.21;39.00;92408.31;5027768;28;20045;-90
2021/12/26 04:59:13;;;;;;;3.45;3.10;;;;;;;15.20;39.08;92406.81;5040809;28;20484;-90
2021/12/26 05:01:39;;;;;;;4.93;3.15;;;;;;;15.17;39.05;92420.72;5013985;28;20037;-90
2021/12/26 05:04:05;;;;;;;3.40;3.05;;;;;;;15.14;39.03;92421.78;5026528;28;20117;-89
2021/12/26 05:06:30;;;;;;;3.80;3.13;;;;;;;15.20;39.14;92417.72;5026832;28;20044;-90
2021/12/26 05:08:56;;;;;;;3.58;2.97;;;;;;;15.17;39.23;92421.47;5028386;28;20090;-90
2021/12/26 05:11:21;;;;;;;3.10;2.80;;;;;;;15.20;39.43;92427.88;5042806;28;20041;-90
2021/12/26 05:13:47;;;;;;;4.70;3.15;;;;;;;15.14;39.05;92430.69;5023596;28;20040;-90
2021/12/26 05:16:12;;;;;;;3.38;3.08;;;;;;;15.11;39.38;92428.97;5007963;28;20049;-90
2021/12/26 05:18:37;;;;;;;4.30;3.90;;;;;;;15.13;39.26;92420.31;5009479;28;20037;-90
2021/12/26 05:21:03;;;;;;;3.83;3.17;;;;;;;15.16;39.10;92425.44;5039830;28;20042;-89
2021/12/26 05:23:28;;;;;;;4.25;3.38;;;;;;;15.10;39.15;92424.78;5024415;28;20033;-90
2021/12/26 05:25:54;;;;;;;3.05;2.30;;;;;;;15.06;39.23;92422.34;5026529;28;20049;-90
2021/12/26 05:28:19;;;;;;;3.75;3.08;;;;;;;15.09;39.20;92417.88;5043502;28;20042;-90
2021/12/26 05:30:44;;;;;;;3.45;2.75;;;;;;;15.06;39.21;92416.16;5043201;28;20026;-90
2021/12/26 05:33:10;;;;;;;3.97;3.22;;;;;;;15.09;39.29;92420.59;5026331;28;20038;-90
2021/12/26 05:35:35;;;;;;;4.38;3.50;;;;;;;15.12;39.21;92427.00;5027474;28;20055;-89
2021/12/26 05:38:01;;;;;;;3.38;2.90;;;;;;;15.10;39.35;92411.19;5026665;28;20095;-90
2021/12/26 05:40:26;;;;;;;4.30;3.75;;;;;;;15.12;39.14;92421.53;5043093;28;20819;-91
2021/12/26 05:42:52;;;;;;;3.55;3.20;;;;;;;15.11;39.13;92433.69;5043962;28;20034;-90
2021/12/26 05:45:17;;;;;;;3.45;3.15;;;;;;;15.07;39.10;92418.38;5026327;28;20064;-90
2021/12/26 05:47:43;;;;;;;2.53;2.33;;;;;;;15.07;39.11;92428.53;5043190;28;20419;-90
2021/12/26 05:50:11;;;;;;;3.85;3.10;;;;;;;15.13;39.24;92426.47;5027182;28;20503;-90
2021/12/26 05:52:36;;;;;;;3.22;2.63;;;;;;;15.09;39.22;92429.50;4977955;28;20037;-90
2021/12/26 05:55:02;;;;;;;3.20;2.55;;;;;;;15.08;39.23;92427.28;5027747;28;20041;-89
2021/12/26 05:57:27;;;;;;;3.63;3.22;;;;;;;15.12;39.15;92421.53;5009748;28;20040;-90
2021/12/26 05:59:54;;;;;;;4.53;3.50;;;;;;;15.14;39.04;92416.34;4999134;28;20046;-90
2021/12/26 06:02:19;;;;;;;2.90;2.60;;;;;;;15.20;38.92;92425.88;5008766;28;20507;-90
2021/12/26 06:04:45;;;;;;;3.80;3.05;;;;;;;15.11;39.10;92420.06;5028431;28;20040;-90
2021/12/26 06:07:10;;;;;;;3.97;3.42;;;;;;;15.12;38.94;92416.09;5017293;28;20041;-89
2021/12/26 06:09:35;;;;;;;5.03;4.05;;;;;;;15.13;39.20;92431.94;5006918;28;20467;-90
2021/12/26 06:12:01;;;;;;;4.03;3.45;;;;;;;15.13;39.07;92429.22;5008778;28;20038;-90
2021/12/26 06:14:26;;;;;;;4.43;3.65;;;;;;;15.11;38.99;92425.53;5008005;28;20041;-90
2021/12/26 06:16:52;;;;;;;3.83;2.95;;;;;;;15.12;39.07;92435.91;5009815;28;20492;-90
2021/12/26 06:19:17;;;;;;;4.15;3.42;;;;;;;15.14;38.86;92436.13;5011622;28;20046;-89
2021/12/26 06:21:42;;;;;;;4.22;2.60;;;;;;;15.16;38.68;92417.25;5011116;28;20073;-90
2021/12/26 06:24:08;;;;;;;4.13;3.45;;;;;;;15.20;38.75;92427.88;5011459;28;20033;-89
2021/12/26 06:26:33;;;;;;;4.32;3.17;;;;;;;15.20;38.75;92425.16;5000338;28;20350;-89
2021/12/26 06:28:59;;;;;;;4.45;3.35;;;;;;;15.14;38.92;92427.97;4994974;28;20037;-90
2021/12/26 06:31:25;;;;;;;3.80;2.90;;;;;;;15.18;38.97;92430.38;4979139;28;20049;-90
2021/12/26 06:33:50;;;;;;;3.97;3.38;;;;;;;15.16;38.63;92424.69;5010728;28;20046;-90
2021/12/26 06:36:17;;;;;;;4.00;3.30;;;;;;;15.17;38.79;92429.63;5009780;28;20492;-90
2021/12/26 06:38:43;;;;;;;4.05;3.53;;;;;;;15.15;38.92;92421.25;5017051;28;20045;-90
2021/12/26 06:41:09;;;;;;;3.50;3.05;;;;;;;15.18;38.60;92422.94;4992821;28;20058;-90
2021/12/26 06:43:34;;;;;;;2.95;2.65;;;;;;;15.18;38.51;92424.91;4994211;28;20046;-90
2021/12/26 06:46:00;;;;;;;4.78;3.33;;;;;;;15.22;38.79;92422.66;5010936;28;20046;-90
2021/12/26 06:48:25;;;;;;;3.53;3.22;;;;;;;15.21;38.72;92421.91;4978850;28;20732;-90
2021/12/26 06:50:51;;;;;;;3.90;2.88;;;;;;;15.15;38.87;92420.53;5003968;28;20049;-90
2021/12/26 06:53:16;;;;;;;3.42;3.08;;;;;;;15.22;38.81;92428.09;4996112;28;20483;-90
2021/12/26 06:55:42;;;;;;;4.95;3.78;;;;;;;15.17;38.75;92429.63;5013921;28;20470;-90
2021/12/26 06:58:08;;;;;;;3.50;2.92;;;;;;;15.15;38.91;92429.44;5010119;28;20321;-90
2021/12/26 07:00:34;;;;;;;3.83;3.15;;;;;;;15.14;38.87;92435.38;5027647;28;20402;-90
2021/12/26 07:02:59;;;;;;;4.45;3.42;;;;;;;15.15;38.70;92434.88;5031022;28;20026;-90
2021/12/26 07:05:24;;;;;;;3.97;3.50;;;;;;;15.17;38.71;92445.22;4977147;28;20045;-89
2021/12/26 07:07:51;;;;;;;3.35;3.00;;;;;;;15.14;38.93;92430.69;5010047;28;20036;-89
2021/12/26 07:10:17;;;;;;;4.22;3.20;;;;;;;15.15;38.51;92436.88;5011025;28;20041;-90
2021/12/26 07:12:42;;;;;;;3.22;2.85;;;;;;;15.21;38.59;92445.69;4992925;28;20038;-90
2021/12/26 07:15:09;;;;;;;3.97;3.08;;;;;;;15.16;38.77;92441.03;5003941;28;20431;-89
2021/12/26 07:17:35;;;;;;;3.53;3.00;;;;;;;15.12;38.98;92448.78;5011709;28;20099;-90
2021/12/26 07:20:00;;;;;;;4.28;3.15;;;;;;;15.08;39.08;92451.78;4997195;28;20041;-90
2021/12/26 07:22:27;;;;;;;3.67;3.28;;;;;;;15.12;38.78;92456.94;4995615;28;20034;-90
2021/12/26 07:24:52;;;;;;;3.72;3.22;;;;;;;15.12;38.94;92457.66;5030912;28;20060;-90
2021/12/26 07:27:17;;;;;;;3.95;3.55;;;;;;;15.13;38.85;92461.13;5003295;28;20041;-90
2021/12/26 07:29:43;;;;;;;4.18;3.28;;;;;;;15.14;39.05;92457.91;5012676;28;20029;-90
2021/12/26 07:32:09;;;;;;;4.50;3.50;;;;;;;15.12;38.98;92462.38;5003787;28;20042;-90
2021/12/26 07:34:34;;;;;;;3.72;3.28;;;;;;;15.19;38.73;92456.34;5012666;28;20446;-90
2021/12/26 07:37:00;;;;;;;4.35;3.42;;;;;;;15.17;38.33;92456.13;5029215;28;20044;-90
2021/12/26 07:39:26;;;;;;;2.97;2.35;;;;;;;15.23;38.37;92462.97;5035407;28;20037;-89
2021/12/26 07:41:51;;;;;;;3.50;2.63;;;;;;;15.14;38.91;92465.31;5028898;28;20036;-90
2021/12/26 07:44:16;;;;;;;4.43;3.60;;;;;;;15.13;38.88;92461.13;5030115;28;20044;-90
2021/12/26 07:46:42;;;;;;;2.97;2.65;;;;;;;15.17;38.75;92467.00;5029273;28;20052;-90
2021/12/26 07:49:07;;;;;;;3.72;3.13;;;;;;;15.16;38.83;92471.72;5036142;28;20053;-90
2021/12/26 07:51:33;;;;;;;3.97;3.10;;;;;;;15.13;38.81;92472.75;5031348;28;20049;-90
2021/12/26 07:54:01;;;;;;;3.33;2.97;;;;;;;15.08;39.09;92471.56;5048714;28;20044;-89
2021/12/26 07:56:26;;;;;;;4.05;2.90;;;;;;;15.11;39.01;92469.06;5048324;28;20094;-90
2021/12/26 07:58:51;;;;;;;3.40;3.10;;;;;;;15.09;38.93;92461.41;5048713;28;20046;-90
2021/12/26 08:01:17;;;;;;;5.00;3.40;;;;;;;15.11;38.84;92458.91;4991671;28;20050;-90
2021/12/26 08:03:42;;;;;;;3.85;3.25;;;;;;;15.14;38.56;92455.19;5015266;28;20507;-89
2021/12/26 08:06:09;;;;;;;3.92;3.10;;;;;;;15.11;38.71;92447.28;5028436;28;20068;-90
2021/12/26 08:08:36;;;;;;;3.95;3.10;;;;;;;15.11;38.76;92463.63;5028670;28;20033;-89
2021/12/26 08:11:02;;;;;;;4.70;3.30;;;;;;;15.11;39.01;92460.91;5028145;28;20040;-89
2021/12/26 08:13:29;;;;;;;3.90;3.08;;;;;;;15.12;38.87;92449.50;5028001;28;20029;-90
2021/12/26 08:15:55;;;;;;;4.35;3.10;;;;;;;15.11;38.66;92472.53;5042572;28;20036;-90
2021/12/26 08:18:20;;;;;;;4.05;3.08;;;;;;;15.14;38.80;92460.63;5049115;28;20033;-90
2021/12/26 08:20:46;;;;;;;3.25;2.80;;;;;;;15.15;38.84;92461.34;5031739;28;20059;-90
2021/12/26 08:23:11;;;;;;;3.55;3.25;;;;;;;15.13;38.67;92456.44;5047460;28;20048;-90
2021/12/26 08:25:37;;;;;;;4.20;3.30;;;;;;;15.13;38.81;92469.28;5048125;28;20041;-90
2021/12/26 08:28:03;;;;;;;4.18;3.30;;;;;;;15.18;38.64;92465.75;5046936;28;20033;-89
2021/12/26 08:30:30;;;;;;;5.80;3.15;;;;;;;15.19;38.64;92476.13;5048237;28;20398;-89
2021/12/26 08:32:58;;;;;;;4.43;3.22;;;;;;;15.15;38.64;92474.97;5013464;28;20034;-90
2021/12/26 08:35:24;;;;;;;4.55;3.35;;;;;;;15.09;38.75;92469.56;5023850;28;20404;-89
2021/12/26 08:37:49;;;;;;;3.30;2.75;;;;;;;15.15;38.45;92475.72;5024903;28;20080;-90
2021/12/26 08:40:15;;;;;;;3.95;3.15;;;;;;;15.13;38.83;92472.03;5042958;28;20058;-89
2021/12/26 08:42:41;;;;;;;3.88;3.10;;;;;;;15.15;38.82;92478.44;5047722;28;20090;-90
2021/12/26 08:45:06;;;;;;;4.40;3.00;;;;;;;15.11;38.78;92469.81;5048369;28;20408;-89
2021/12/26 08:47:32;;;;;;;4.28;3.33;;;;;;;15.13;38.83;92472.75;5048797;28;20074;-90
2021/12/26 08:49:58;;;;;;;3.65;3.00;;;;;;;15.16;38.72;92469.00;5047915;28;20053;-90
2021/12/26 08:52:23;;;;;;;3.67;2.88;;;;;;;15.13;38.66;92474.75;5047730;28;20040;-89
2021/12/26 08:54:48;;;;;;;3.15;2.80;;;;;;;15.12;38.50;92471.28;5048555;28;20102;-90
2021/12/26 08:57:15;;;;;;;3.60;2.72;;;;;;;15.13;38.68;92474.75;5030169;28;20029;-90
2021/12/26 08:59:41;;;;;;;3.50;2.80;;;;;;;15.16;39.03;92469.00;5016594;28;20137;-89
2021/12/26 09:02:07;;;;;;;4.82;3.30;;;;;;;15.16;38.82;92471.72;5011710;28;20389;-90
2021/12/26 09:04:33;;;;;;;4.10;3.50;;;;;;;15.19;38.44;92475.41;5041695;28;20044;-89
2021/12/26 09:06:59;;;;;;;4.78;3.15;;;;;;;15.16;38.49;92479.88;5047414;28;20045;-89
2021/12/26 09:09:25;;;;;;;3.88;2.85;;;;;;;15.16;38.67;92481.84;5046252;28;20487;-91
2021/12/26 09:11:51;;;;;;;3.45;2.95;;;;;;;15.18;38.68;92477.38;5047153;28;20037;-90
2021/12/26 09:14:16;;;;;;;3.78;2.88;;;;;;;15.23;38.29;92484.75;5047735;28;20123;-90
2021/12/26 09:16:42;;;;;;;3.55;2.70;;;;;;;15.16;38.62;92490.03;5048357;28;20037;-90
2021/12/26 09:19:07;;;;;;;3.85;3.30;;;;;;;15.20;38.53;92482.31;5047842;28;20041;-90
2021/12/26 09:21:33;;;;;;;5.05;4.00;;;;;;;15.17;38.65;92492.25;5046643;28;20442;-90
2021/12/26 09:23:58;;;;;;;3.72;3.28;;;;;;;15.22;38.58;92498.88;5047156;28;20041;-89
2021/12/26 09:26:23;;;;;;;4.03;2.92;;;;;;;15.17;38.67;92500.41;5030671;28;20426;-90
2021/12/26 09:28:49;;;;;;;3.92;2.80;;;;;;;15.23;38.71;92495.66;5025362;28;20402;-89
2021/12/26 09:31:14;;;;;;;3.90;3.38;;;;;;;15.23;38.32;92484.75;5037958;28;20030;-90
2021/12/26 09:33:40;;;;;;;2.95;2.67;;;;;;;15.20;38.66;92490.47;5007006;28;20066;-90
2021/12/26 09:36:06;;;;;;;5.22;3.53;;;;;;;15.18;38.75;92499.16;5007303;28;20041;-89
2021/12/26 09:38:31;;;;;;;4.25;3.33;;;;;;;15.21;38.77;92492.69;5008638;28;20048;-89
2021/12/26 09:40:56;;;;;;;4.50;3.05;;;;;;;15.21;38.68;92487.25;4990825;28;20543;-90
2021/12/26 09:43:22;;;;;;;3.80;2.95;;;;;;;15.19;38.48;92489.00;5007842;28;20069;-90
2021/12/26 09:45:48;;;;;;;4.65;4.18;;;;;;;15.24;38.39;92499.09;4974242;28;20514;-90
2021/12/26 09:48:13;;;;;;;3.90;3.22;;;;;;;15.28;38.40;92486.69;4990439;28;20504;-89
2021/12/26 09:50:39;;;;;;;4.13;3.40;;;;;;;15.23;38.49;92490.19;5010174;28;20045;-90
2021/12/26 09:53:05;;;;;;;3.20;2.67;;;;;;;15.26;38.36;92477.56;5032033;28;20140;-90
2021/12/26 09:55:31;;;;;;;3.78;3.33;;;;;;;15.25;38.58;92487.72;5050641;28;20029;-90
2021/12/26 09:57:56;;;;;;;3.70;3.05;;;;;;;15.25;38.46;92481.53;5051268;28;20056;-89
2021/12/26 10:00:30;;;;;;;5.38;3.22;;;;;;;15.29;38.84;92488.16;5046605;28;20045;-89
2021/12/26 10:03:22;;;;;;;4.47;2.40;;;;;;;15.22;38.38;92477.84;5045434;28;20033;-90
2021/12/26 10:05:53;;;;;;;4.53;3.28;;;;;;;15.21;38.53;92476.34;5046239;28;20037;-90
2021/12/26 10:08:19;;;;;;;3.78;3.22;;;;;;;15.18;38.40;92469.22;5034836;28;20040;-90
2021/12/26 10:11:10;;;;;;;3.38;3.00;;;;;;;15.21;38.59;92459.28;5048574;28;20029;-89
2021/12/26 10:13:43;;;;;;;3.88;3.00;;;;;;;15.20;38.76;92444.19;5043587;28;20117;-90
2021/12/26 10:16:09;;;;;;;5.40;3.25;;;;;;;15.22;38.29;92455.31;5018826;28;20053;-89
2021/12/26 10:18:39;;;;;;;2.95;2.65;;;;;;;15.21;38.44;92445.69;5050950;28;20039;-90
2021/12/26 10:21:32;;;;;;;3.65;2.78;;;;;;;15.19;38.48;92448.91;5049843;28;20052;-90
2021/12/26 10:24:06;;;;;;;4.10;3.33;;;;;;;15.18;38.47;92452.16;5052092;28;20041;-90
2021/12/26 10:26:33;;;;;;;3.90;3.28;;;;;;;15.22;38.55;92447.16;5045873;28;20111;-90
2021/12/26 10:29:09;;;;;;;4.03;3.22;;;;;;;15.20;38.64;92441.47;5044245;28;20234;-90
2021/12/26 10:31:35;;;;;;;3.70;3.13;;;;;;;15.22;38.48;92444.44;5035970;28;20040;-89
2021/12/26 10:34:01;;;;;;;3.42;2.90;;;;;;;15.25;38.45;92435.25;5050635;28;20056;-90
2021/12/26 10:36:26;;;;;;;3.33;3.03;;;;;;;15.26;38.47;92444.88;5050643;28;20033;-90
2021/12/26 10:39:17;;;;;;;3.50;2.67;;;;;;;15.25;38.48;92443.41;5067001;28;20036;-90
2021/12/26 10:41:43;;;;;;;3.33;2.70;;;;;;;15.24;38.59;92445.41;5033516;28;20044;-89
2021/12/26 10:44:21;;;;;;;4.03;3.20;;;;;;;15.29;38.69;92454.75;5049650;28;20041;-89
2021/12/26 10:46:48;;;;;;;3.38;2.80;;;;;;;15.27;38.42;92451.81;5050052;28;20025;-90
2021/12/26 10:49:35;;;;;;;4.38;3.33;;;;;;;15.25;38.27;92449.59;5049126;28;20138;-90
2021/12/26 10:52:01;;;;;;;3.00;2.70;;;;;;;15.25;38.41;92444.16;5038388;28;20045;-90
2021/12/26 10:54:31;;;;;;;4.10;3.20;;;;;;;15.23;38.41;92448.63;4977308;28;20049;-90
2021/12/26 10:57:10;;;;;;;4.10;3.30;;;;;;;15.26;38.67;92453.06;4978576;28;20274;-90
2021/12/26 10:59:37;;;;;;;4.45;3.05;;;;;;;15.25;38.25;92455.03;4999339;28;20101;-89
2021/12/26 11:02:03;;;;;;;2.90;2.65;;;;;;;15.24;38.57;92455.53;4996117;28;20037;-89
2021/12/26 11:04:28;;;;;;;3.47;2.92;;;;;;;15.24;38.38;92456.28;5011961;28;20033;-90
2021/12/26 11:07:02;;;;;;;4.35;3.13;;;;;;;15.25;38.48;92455.03;5013161;28;20474;-89
2021/12/26 11:09:28;;;;;;;3.60;3.10;;;;;;;15.25;38.58;92449.59;5029368;28;20107;-90
2021/12/26 11:12:07;;;;;;;4.07;3.03;;;;;;;15.27;38.50;92457.97;5030511;28;20487;-89
2021/12/26 11:14:33;;;;;;;3.35;3.03;;;;;;;15.23;38.55;92457.53;5012795;28;20041;-89
2021/12/26 11:16:58;;;;;;;3.38;2.78;;;;;;;15.29;38.63;92454.75;5009275;28;20120;-89
2021/12/26 11:19:41;;;;;;;3.58;2.72;;;;;;;15.29;38.61;92452.75;5008502;28;20484;-89
2021/12/26 11:22:07;;;;;;;4.63;3.40;;;;;;;15.29;38.54;92452.03;5009328;28;20048;-90
2021/12/26 11:24:33;;;;;;;4.15;3.08;;;;;;;15.28;38.49;92440.41;5030430;28;20505;-89
2021/12/26 11:26:59;;;;;;;4.20;3.42;;;;;;;15.25;38.52;92441.41;5025706;28;20050;-90
2021/12/26 11:29:25;;;;;;;4.35;3.05;;;;;;;15.25;38.54;92438.69;5024633;28;20029;-90
2021/12/26 11:31:50;;;;;;;4.35;3.38;;;;;;;15.26;38.41;92434.00;5029355;28;20483;-89
2021/12/26 11:34:16;;;;;;;3.90;3.05;;;;;;;15.27;38.56;92438.19;4980032;28;20384;-89
2021/12/26 11:36:41;;;;;;;3.45;3.00;;;;;;;15.32;38.58;92440.13;5030418;28;20063;-90